createdAt,value
2019-02-19T00:01:41.195Z,97890.88
2019-02-19T00:04:09.192Z,97891.23
2019-02-19T00:06:37.306Z,97883.52
2019-02-19T00:09:06.079Z,97877.52
2019-02-19T00:11:34.054Z,97886.51
2019-02-19T00:14:02.188Z,97881.36
2019-02-19T00:16:30.383Z,97889.59
2019-02-19T00:18:58.633Z,97891.45
2019-02-19T00:21:26.677Z,97885.92
2019-02-19T00:23:54.755Z,97880.73
2019-02-19T00:26:22.707Z,97884.27
2019-02-19T00:28:50.516Z,97877.36
2019-02-19T00:31:18.516Z,97879.06
2019-02-19T00:33:46.495Z,97874.34
2019-02-19T00:36:14.421Z,97874.45
2019-02-19T00:38:42.327Z,97874.05
2019-02-19T00:41:10.458Z,97873.26
2019-02-19T00:43:38.479Z,97868.08
2019-02-19T00:46:06.480Z,97869.02
2019-02-19T00:48:34.461Z,97859.07
2019-02-19T00:51:02.596Z,97870.81
2019-02-19T00:53:30.600Z,97867.08
2019-02-19T00:55:59.631Z,97860.94
2019-02-19T00:58:27.782Z,97862.77
2019-02-19T01:00:56.013Z,97854.55
2019-02-19T01:03:24.299Z,97862.84
2019-02-19T01:05:52.536Z,97859.33
2019-02-19T01:08:20.355Z,97858.95
2019-02-19T01:10:48.542Z,97857.22
2019-02-19T01:13:16.838Z,97847.73
2019-02-19T01:15:44.771Z,97846.42
2019-02-19T01:18:12.728Z,97840.86
2019-02-19T01:20:40.702Z,97837.95
2019-02-19T01:23:08.798Z,97842.41
2019-02-19T01:25:36.630Z,97838.05
2019-02-19T01:28:04.582Z,97833.30
2019-02-19T01:30:32.765Z,97833.72
2019-02-19T01:33:01.870Z,97826.00
2019-02-19T01:35:29.731Z,97828.10
2019-02-19T01:37:57.605Z,97826.87
2019-02-19T01:40:25.681Z,97826.87
2019-02-19T01:42:54.564Z,97829.13
2019-02-19T01:45:22.652Z,97825.25
2019-02-19T01:47:50.704Z,97815.72
2019-02-19T01:50:20.015Z,97819.39
2019-02-19T01:52:48.111Z,97817.20
2019-02-19T01:55:16.119Z,97817.57
2019-02-19T01:57:44.087Z,97811.56
2019-02-19T02:00:12.113Z,97804.64
2019-02-19T02:02:40.225Z,97812.45
2019-02-19T02:05:11.138Z,97810.83
2019-02-19T02:07:39.086Z,97809.11
2019-02-19T02:10:07.245Z,97812.64
2019-02-19T02:12:35.415Z,97801.81
2019-02-19T02:15:03.378Z,97813.06
2019-02-19T02:17:31.504Z,97803.55
2019-02-19T02:19:59.600Z,97799.64
2019-02-19T02:22:27.730Z,97799.64
2019-02-19T02:24:55.799Z,97791.93
2019-02-19T02:27:24.126Z,97791.08
2019-02-19T02:29:52.469Z,97796.83
2019-02-19T02:32:20.478Z,97800.36
2019-02-19T02:34:48.386Z,97788.26
2019-02-19T02:37:17.257Z,97794.31
2019-02-19T02:39:45.148Z,97795.11
2019-02-19T02:42:13.091Z,97781.42
2019-02-19T02:44:42.037Z,97793.55
2019-02-19T02:47:10.205Z,97789.20
2019-02-19T02:49:38.845Z,97790.53
2019-02-19T02:52:06.766Z,97787.98
2019-02-19T02:54:34.733Z,97791.83
2019-02-19T02:57:02.887Z,97790.97
2019-02-19T02:59:31.049Z,97793.61
2019-02-19T03:01:59.972Z,97790.18
2019-02-19T03:04:28.041Z,97794.95
2019-02-19T03:07:10.609Z,97793.36
2019-02-19T03:09:38.805Z,97792.06
2019-02-19T03:12:06.864Z,97794.61
2019-02-19T03:14:34.795Z,97799.95
2019-02-19T03:17:02.722Z,97802.98
2019-02-19T03:19:30.776Z,97801.69
2019-02-19T03:21:58.904Z,97798.23
2019-02-19T03:24:26.986Z,97802.11
2019-02-19T03:26:55.045Z,97802.58
2019-02-19T03:29:22.969Z,97800.47
2019-02-19T03:31:50.928Z,97796.61
2019-02-19T03:34:19.905Z,97800.14
2019-02-19T03:36:49.123Z,97800.13
2019-02-19T03:39:16.963Z,97795.80
2019-02-19T03:41:45.104Z,97790.54
2019-02-19T03:44:12.998Z,97797.12
2019-02-19T03:46:40.998Z,97802.30
2019-02-19T03:49:08.874Z,97800.56
2019-02-19T03:51:36.630Z,97798.41
2019-02-19T03:54:04.632Z,97795.83
2019-02-19T03:56:32.759Z,97786.45
2019-02-19T03:59:00.705Z,97796.04
2019-02-19T04:01:29.025Z,97791.72
2019-02-19T04:03:57.154Z,97792.59
2019-02-19T04:06:25.073Z,97793.03
2019-02-19T04:08:53.054Z,97794.33
2019-02-19T04:11:21.132Z,97786.08
2019-02-19T04:13:49.205Z,97791.72
2019-02-19T04:16:21.360Z,97789.13
2019-02-19T04:18:46.980Z,97793.88
2019-02-19T04:21:15.114Z,97793.45
2019-02-19T04:23:42.961Z,97799.52
2019-02-19T04:26:11.178Z,97795.23
2019-02-19T04:28:39.115Z,97793.51
2019-02-19T04:31:07.273Z,97790.48
2019-02-19T04:33:35.980Z,97790.93
2019-02-19T04:36:04.099Z,97784.80
2019-02-19T04:38:32.076Z,97790.04
2019-02-19T04:41:00.351Z,97786.09
2019-02-19T04:43:28.307Z,97793.45
2019-02-19T04:45:56.464Z,97782.20
2019-02-19T04:48:24.859Z,97790.34
2019-02-19T04:50:52.627Z,97789.05
2019-02-19T04:53:20.599Z,97789.91
2019-02-19T04:55:48.515Z,97790.77
2019-02-19T04:58:16.499Z,97786.54
2019-02-19T05:00:45.418Z,97789.98
2019-02-19T05:03:13.945Z,97790.04
2019-02-19T05:05:41.860Z,97791.34
2019-02-19T05:08:09.730Z,97792.16
2019-02-19T05:10:37.557Z,97790.00
2019-02-19T05:13:05.570Z,97787.41
2019-02-19T05:15:33.476Z,97795.19
2019-02-19T05:18:01.395Z,97804.28
2019-02-19T05:20:29.396Z,97803.90
2019-02-19T05:22:57.375Z,97806.94
2019-02-19T05:25:25.589Z,97809.91
2019-02-19T05:27:53.512Z,97814.37
2019-02-19T05:30:21.433Z,97807.57
2019-02-19T05:32:49.316Z,97824.33
2019-02-19T05:35:17.170Z,97817.84
2019-02-19T05:37:44.943Z,97816.53
2019-02-19T05:40:12.912Z,97812.64
2019-02-19T05:42:40.798Z,97815.25
2019-02-19T05:45:08.835Z,97819.19
2019-02-19T05:47:36.737Z,97826.92
2019-02-19T05:50:04.711Z,97827.84
2019-02-19T05:52:32.833Z,97836.02
2019-02-19T05:55:00.780Z,97837.75
2019-02-19T05:57:28.843Z,97844.72
2019-02-19T05:59:56.644Z,97849.48
2019-02-19T06:02:24.645Z,97841.27
2019-02-19T06:04:52.553Z,97843.92
2019-02-19T06:07:20.563Z,97829.70
2019-02-19T06:09:48.502Z,97839.60
2019-02-19T06:12:16.459Z,97842.56
2019-02-19T06:14:44.281Z,97851.16
2019-02-19T06:17:12.178Z,97854.12
2019-02-19T06:19:40.261Z,97851.81
2019-02-19T06:22:08.197Z,97860.34
2019-02-19T06:24:37.200Z,97868.42
2019-02-19T06:27:05.207Z,97866.27
2019-02-19T06:29:33.119Z,97871.12
2019-02-19T06:32:00.825Z,97872.09
2019-02-19T06:34:28.833Z,97874.46
2019-02-19T06:36:56.651Z,97874.16
2019-02-19T06:39:24.629Z,97863.11
2019-02-19T06:41:52.510Z,97881.28
2019-02-19T06:44:21.078Z,97886.33
2019-02-19T06:46:49.874Z,97891.65
2019-02-19T06:49:18.069Z,97889.91
2019-02-19T06:51:46.138Z,97894.88
2019-02-19T06:54:14.160Z,97891.64
2019-02-19T06:56:42.052Z,97885.66
2019-02-19T06:59:10.162Z,97888.78
2019-02-19T07:01:57.021Z,97890.19
2019-02-19T07:04:28.757Z,97893.80
2019-02-19T07:06:56.774Z,97889.81
2019-02-19T07:09:24.913Z,97891.85
2019-02-19T07:11:52.910Z,97893.80
2019-02-19T07:14:20.984Z,97905.06
2019-02-19T07:16:48.819Z,97903.70
2019-02-19T07:19:16.680Z,97900.43
2019-02-19T07:21:44.863Z,97897.17
2019-02-19T07:24:12.747Z,97894.17
2019-02-19T07:26:40.727Z,97893.75
2019-02-19T07:29:08.802Z,97889.50
2019-02-19T07:31:36.569Z,97899.36
2019-02-19T07:34:04.417Z,97897.22
2019-02-19T07:36:32.446Z,97896.78
2019-02-19T07:39:00.459Z,97891.19
2019-02-19T07:41:28.342Z,97892.48
2019-02-19T07:43:56.209Z,97895.27
2019-02-19T07:46:24.072Z,97888.77
2019-02-19T07:48:52.067Z,97895.22
2019-02-19T07:51:20.182Z,97897.91
2019-02-19T07:53:48.481Z,97889.09
2019-02-19T07:56:16.401Z,97880.98
2019-02-19T07:58:44.415Z,97896.53
2019-02-19T08:01:12.188Z,97890.44
2019-02-19T08:03:40.146Z,97891.27
2019-02-19T08:06:08.062Z,97887.41
2019-02-19T08:08:36.203Z,97892.20
2019-02-19T08:11:04.309Z,97896.24
2019-02-19T08:13:32.151Z,97893.77
2019-02-19T08:16:01.114Z,97901.67
2019-02-19T08:18:29.097Z,97895.64
2019-02-19T08:20:57.025Z,97893.37
2019-02-19T08:23:25.046Z,97891.26
2019-02-19T08:25:53.031Z,97891.14
2019-02-19T08:28:20.966Z,97897.02
2019-02-19T08:30:49.154Z,97898.27
2019-02-19T08:33:17.213Z,97891.71
2019-02-19T08:35:45.085Z,97898.52
2019-02-19T08:38:12.961Z,97895.63
2019-02-19T08:40:40.913Z,97890.88
2019-02-19T08:43:08.898Z,97902.55
2019-02-19T08:45:36.825Z,97896.81
2019-02-19T08:48:04.819Z,97898.83
2019-02-19T08:50:32.737Z,97893.08
2019-02-19T08:53:00.783Z,97906.07
2019-02-19T08:55:28.637Z,97905.61
2019-02-19T08:57:56.478Z,97911.22
2019-02-19T09:00:24.573Z,97909.66
2019-02-19T09:02:52.541Z,97907.67
2019-02-19T09:05:20.521Z,97907.54
2019-02-19T09:07:48.318Z,97908.67
2019-02-19T09:10:16.257Z,97918.56
2019-02-19T09:12:44.333Z,97920.55
2019-02-19T09:15:12.401Z,97918.55
2019-02-19T09:17:40.310Z,97921.83
2019-02-19T09:20:08.440Z,97922.44
2019-02-19T09:22:36.323Z,97923.45
2019-02-19T09:25:04.690Z,97919.26
2019-02-19T09:27:32.559Z,97922.27
2019-02-19T09:30:00.511Z,97920.17
2019-02-19T09:32:28.479Z,97915.83
2019-02-19T09:34:56.354Z,97913.16
2019-02-19T09:37:25.279Z,97918.07
2019-02-19T09:39:54.764Z,97911.83
2019-02-19T09:42:22.608Z,97912.15
2019-02-19T09:44:50.580Z,97913.30
2019-02-19T09:47:18.582Z,97918.96
2019-02-19T09:49:46.358Z,97918.32
2019-02-19T09:52:14.201Z,97900.73
2019-02-19T09:54:42.364Z,97914.08
2019-02-19T09:57:10.246Z,97918.13
2019-02-19T09:59:38.292Z,97912.37
2019-02-19T10:02:06.316Z,97914.38
2019-02-19T10:04:34.364Z,97918.05
2019-02-19T10:07:02.141Z,97914.42
2019-02-19T10:09:30.595Z,97917.38
2019-02-19T10:11:58.486Z,97908.50
2019-02-19T10:14:26.533Z,97911.44
2019-02-19T10:16:54.444Z,97906.47
2019-02-19T10:19:22.592Z,97901.56
2019-02-19T10:21:51.763Z,97908.20
2019-02-19T10:24:19.787Z,97901.02
2019-02-19T10:26:49.590Z,97900.19
2019-02-19T10:29:17.669Z,97900.17
2019-02-19T10:31:45.697Z,97895.89
2019-02-19T10:34:13.815Z,97900.80
2019-02-19T10:36:41.843Z,97905.15
2019-02-19T10:39:11.359Z,97897.95
2019-02-19T10:41:39.619Z,97893.16
2019-02-19T10:44:07.488Z,97893.69
2019-02-19T10:46:35.620Z,97890.49
2019-02-19T10:49:03.572Z,97892.02
2019-02-19T10:51:31.831Z,97894.88
2019-02-19T10:54:00.091Z,97885.81
2019-02-19T10:56:28.039Z,97882.16
2019-02-19T10:58:55.995Z,97883.22
2019-02-19T11:01:23.808Z,97878.98
2019-02-19T11:03:51.847Z,97876.67
2019-02-19T11:06:19.795Z,97882.73
2019-02-19T11:08:47.767Z,97882.49
2019-02-19T11:11:15.723Z,97874.15
2019-02-19T11:13:43.891Z,97874.98
2019-02-19T11:16:12.051Z,97875.83
2019-02-19T11:18:40.334Z,97874.27
2019-02-19T11:21:08.375Z,97874.23
2019-02-19T11:23:36.192Z,97874.09
2019-02-19T11:26:04.401Z,97867.36
2019-02-19T11:28:32.563Z,97869.13
2019-02-19T11:31:00.663Z,97869.84
2019-02-19T11:33:28.857Z,97856.12
2019-02-19T11:35:56.862Z,97862.98
2019-02-19T11:38:24.942Z,97859.99
2019-02-19T11:40:52.803Z,97860.83
2019-02-19T11:43:20.849Z,97857.44
2019-02-19T11:45:48.971Z,97861.11
2019-02-19T11:48:16.991Z,97855.94
2019-02-19T11:50:44.841Z,97855.72
2019-02-19T11:53:12.728Z,97849.73
2019-02-19T11:55:40.662Z,97853.41
2019-02-19T11:58:08.546Z,97852.34
2019-02-19T12:00:38.869Z,97846.25
2019-02-19T12:03:06.770Z,97854.68
2019-02-19T12:05:34.696Z,97844.77
2019-02-19T12:08:02.803Z,97836.59
2019-02-19T12:10:30.864Z,97835.84
2019-02-19T12:12:58.880Z,97833.53
2019-02-19T12:15:34.932Z,97830.09
2019-02-19T12:17:56.723Z,97832.88
2019-02-19T12:20:24.679Z,97835.14
2019-02-19T12:22:52.883Z,97822.73
2019-02-19T12:25:20.892Z,97828.34
2019-02-19T12:27:48.808Z,97822.35
2019-02-19T12:30:17.763Z,97819.22
2019-02-19T12:32:45.562Z,97819.16
2019-02-19T12:35:13.604Z,97812.44
2019-02-19T12:37:41.541Z,97812.32
2019-02-19T12:40:09.798Z,97813.36
2019-02-19T12:42:38.118Z,97811.38
2019-02-19T12:45:07.173Z,97810.51
2019-02-19T12:47:35.437Z,97806.82
2019-02-19T12:50:03.722Z,97802.32
2019-02-19T12:52:31.700Z,97814.19
2019-02-19T12:54:59.912Z,97809.19
2019-02-19T12:57:27.908Z,97806.22
2019-02-19T12:59:56.769Z,97802.37
2019-02-19T13:02:24.825Z,97794.84
2019-02-19T13:04:52.974Z,97799.72
2019-02-19T13:07:20.763Z,97797.70
2019-02-19T13:09:48.818Z,97798.55
2019-02-19T13:12:16.906Z,97799.13
2019-02-19T13:14:44.794Z,97801.02
2019-02-19T13:17:15.776Z,97799.13
2019-02-19T13:19:43.869Z,97793.31
2019-02-19T13:22:11.849Z,97795.12
2019-02-19T13:24:39.654Z,97785.80
2019-02-19T13:27:07.590Z,97786.11
2019-02-19T13:29:36.083Z,97788.16
2019-02-19T13:32:04.206Z,97789.63
2019-02-19T13:34:32.229Z,97783.31
2019-02-19T13:37:00.192Z,97783.81
2019-02-19T13:39:28.286Z,97786.47
2019-02-19T13:41:56.079Z,97789.55
2019-02-19T13:44:24.089Z,97788.79
2019-02-19T13:46:52.070Z,97789.31
2019-02-19T13:49:20.034Z,97788.64
2019-02-19T13:51:47.904Z,97788.52
2019-02-19T13:54:29.828Z,97784.91
2019-02-19T13:56:57.880Z,97775.48
2019-02-19T13:59:25.903Z,97777.38
2019-02-19T14:01:53.839Z,97772.78
2019-02-19T14:04:21.877Z,97778.19
2019-02-19T14:06:49.888Z,97776.73
2019-02-19T14:09:17.894Z,97779.08
2019-02-19T14:11:45.951Z,97781.66
2019-02-19T14:14:21.551Z,97788.77
2019-02-19T14:16:55.866Z,97779.55
2019-02-19T14:19:44.904Z,97785.41
2019-02-19T14:22:31.039Z,97785.41
2019-02-19T14:25:27.530Z,97782.06
2019-02-19T14:28:16.031Z,97777.28
2019-02-19T14:31:18.811Z,97773.92
2019-02-19T14:34:05.681Z,97781.23
2019-02-19T14:36:55.538Z,97776.77
2019-02-19T14:39:46.006Z,97780.01
2019-02-19T14:42:36.203Z,97783.56
2019-02-19T14:45:22.551Z,97783.86
2019-02-19T14:48:06.558Z,97780.66
2019-02-19T14:50:54.199Z,97785.70
2019-02-19T14:53:57.251Z,97778.81
2019-02-19T14:56:42.292Z,97786.32
2019-02-19T14:59:27.448Z,97784.22
2019-02-19T15:02:14.992Z,97787.17
2019-02-19T15:04:59.899Z,97794.38
2019-02-19T15:07:56.369Z,97791.00
2019-02-19T15:10:49.740Z,97790.84
2019-02-19T15:13:37.222Z,97791.20
2019-02-19T15:16:12.698Z,97792.06
2019-02-19T15:19:06.131Z,97792.06
2019-02-19T15:22:09.192Z,97783.44
2019-02-19T15:24:56.539Z,97789.05
2019-02-19T15:27:42.776Z,97789.27
2019-02-19T15:30:30.152Z,97788.95
2019-02-19T15:33:04.843Z,97794.86
2019-02-19T15:36:02.098Z,97788.36
2019-02-19T15:38:52.270Z,97798.36
2019-02-19T15:41:32.740Z,97783.17
2019-02-19T15:44:26.800Z,97786.24
2019-02-19T15:47:16.337Z,97789.19
2019-02-19T15:50:03.795Z,97794.62
2019-02-19T15:52:54.328Z,97785.54
2019-02-19T15:55:40.590Z,97789.69
2019-02-19T15:58:27.122Z,97775.52
2019-02-19T16:01:13.221Z,97791.95
2019-02-19T16:03:59.157Z,97787.58
2019-02-19T16:06:53.700Z,97793.34
2019-02-19T16:09:44.064Z,97795.06
2019-02-19T16:12:43.536Z,97796.09
2019-02-19T16:15:42.936Z,97801.69
2019-02-19T16:18:33.819Z,97797.30
2019-02-19T16:21:21.634Z,97801.02
2019-02-19T16:24:07.778Z,97803.34
2019-02-19T16:27:03.888Z,97806.14
2019-02-19T16:30:00.394Z,97805.20
2019-02-19T16:32:50.543Z,97816.06
2019-02-19T16:35:47.033Z,97820.21
2019-02-19T16:38:40.570Z,97823.63
2019-02-19T16:41:40.117Z,97824.30
2019-02-19T16:44:39.462Z,97824.16
2019-02-19T16:47:25.392Z,97829.30
2019-02-19T16:50:12.825Z,97834.70
2019-02-19T16:52:51.026Z,97836.66
2019-02-19T16:55:33.380Z,97845.19
2019-02-19T16:58:14.989Z,97835.52
2019-02-19T17:01:02.370Z,97848.31
2019-02-19T17:03:52.919Z,97852.52
2019-02-19T17:06:28.736Z,97861.23
2019-02-19T17:09:19.117Z,97866.14
2019-02-19T17:12:16.921Z,97867.03
2019-02-19T17:14:52.136Z,97864.66
2019-02-19T17:17:48.850Z,97865.63
2019-02-19T17:20:29.170Z,97878.34
2019-02-19T17:23:16.844Z,97871.27
2019-02-19T17:26:01.227Z,97881.95
2019-02-19T17:28:34.690Z,97884.96
2019-02-19T17:31:18.755Z,97884.48
2019-02-19T17:34:06.711Z,97881.73
2019-02-19T17:36:54.236Z,97890.64
2019-02-19T17:39:46.597Z,97898.33
2019-02-19T17:42:26.528Z,97886.65
2019-02-19T17:45:22.988Z,97894.20
2019-02-19T17:48:13.651Z,97899.89
2019-02-19T17:51:10.122Z,97900.86
2019-02-19T17:54:06.551Z,97901.95
2019-02-19T17:57:06.192Z,97909.41
2019-02-19T18:00:02.771Z,97905.91
2019-02-19T18:02:42.065Z,97908.83
2019-02-19T18:05:27.789Z,97919.92
2019-02-19T18:08:23.788Z,97922.08
2019-02-19T18:11:14.105Z,97925.10
2019-02-19T18:14:00.346Z,97923.11
2019-02-19T18:16:46.642Z,97929.36
2019-02-19T18:19:14.881Z,97924.46
2019-02-19T18:21:42.906Z,97932.61
2019-02-19T18:24:10.958Z,97927.25
2019-02-19T18:26:38.884Z,97941.97
2019-02-19T18:29:06.831Z,97938.59
2019-02-19T18:31:34.794Z,97940.36
2019-02-19T18:34:02.849Z,97939.86
2019-02-19T18:36:30.651Z,97945.09
2019-02-19T18:38:58.599Z,97943.56
2019-02-19T18:41:26.607Z,97947.73
2019-02-19T18:43:54.722Z,97949.10
2019-02-19T18:46:22.643Z,97947.33
2019-02-19T18:48:50.704Z,97945.71
2019-02-19T18:51:19.773Z,97955.12
2019-02-19T18:53:47.830Z,97947.59
2019-02-19T18:56:15.613Z,97952.67
2019-02-19T18:58:43.747Z,97954.90
2019-02-19T19:01:11.822Z,97962.16
2019-02-19T19:03:39.615Z,97963.06
2019-02-19T19:06:09.219Z,97961.52
2019-02-19T19:08:37.002Z,97959.48
2019-02-19T19:11:04.857Z,97969.41
2019-02-19T19:13:33.104Z,97969.24
2019-02-19T19:16:01.077Z,97962.67
2019-02-19T19:18:29.179Z,97953.91
2019-02-19T19:20:57.022Z,97967.91
2019-02-19T19:23:24.981Z,97973.75
2019-02-19T19:25:52.908Z,97979.25
2019-02-19T19:28:22.760Z,97974.86
2019-02-19T19:30:50.924Z,97976.47
2019-02-19T19:33:18.940Z,97975.64
2019-02-19T19:35:46.788Z,97982.29
2019-02-19T19:38:14.878Z,97976.38
2019-02-19T19:40:42.767Z,97974.45
2019-02-19T19:43:10.789Z,97978.84
2019-02-19T19:45:38.592Z,97979.52
2019-02-19T19:48:06.654Z,97976.58
2019-02-19T19:50:34.673Z,97979.72
2019-02-19T19:53:02.691Z,97988.16
2019-02-19T19:55:30.681Z,97979.14
2019-02-19T19:57:59.030Z,97983.03
2019-02-19T20:00:26.821Z,97987.45
2019-02-19T20:02:55.128Z,97991.02
2019-02-19T20:05:23.283Z,97989.45
2019-02-19T20:07:51.904Z,97985.52
2019-02-19T20:10:19.862Z,97989.59
2019-02-19T20:12:47.813Z,97988.02
2019-02-19T20:15:15.725Z,97989.41
2019-02-19T20:17:44.563Z,97995.37
2019-02-19T20:20:12.484Z,97988.73
2019-02-19T20:22:40.408Z,97993.61
2019-02-19T20:25:08.843Z,97993.61
2019-02-19T20:27:38.354Z,97999.97
2019-02-19T20:30:07.391Z,98004.91
2019-02-19T20:32:37.088Z,97998.02
2019-02-19T20:35:05.479Z,98003.73
2019-02-19T20:37:33.492Z,98001.72
2019-02-19T20:40:01.733Z,97996.20
2019-02-19T20:42:29.885Z,98002.03
2019-02-19T20:44:57.946Z,97998.17
2019-02-19T20:47:26.022Z,98007.38
2019-02-19T20:49:54.085Z,98009.82
2019-02-19T20:52:22.159Z,98002.86
2019-02-19T20:54:50.113Z,97998.10
2019-02-19T20:57:18.213Z,97998.62
2019-02-19T20:59:46.250Z,97997.00
2019-02-19T21:02:14.235Z,97997.99
2019-02-19T21:04:42.271Z,97994.37
2019-02-19T21:07:10.388Z,97989.58
2019-02-19T21:09:43.972Z,97981.70
2019-02-19T21:12:08.086Z,97982.22
2019-02-19T21:14:35.937Z,97970.02
2019-02-19T21:17:04.086Z,97978.90
2019-02-19T21:19:32.056Z,97985.44
2019-02-19T21:22:00.014Z,97985.52
2019-02-19T21:24:28.310Z,97991.45
2019-02-19T21:26:56.375Z,97991.43
2019-02-19T21:29:24.290Z,97985.22
2019-02-19T21:31:52.291Z,97990.33
2019-02-19T21:34:20.107Z,97991.61
2019-02-19T21:36:48.194Z,97989.14
2019-02-19T21:39:16.241Z,97995.53
2019-02-19T21:41:44.421Z,97988.91
2019-02-19T21:44:12.655Z,97984.98
2019-02-19T21:46:41.316Z,97974.70
2019-02-19T21:49:09.377Z,97996.90
2019-02-19T21:51:37.482Z,97994.91
2019-02-19T21:54:05.501Z,97988.07
2019-02-19T21:56:33.822Z,97983.55
2019-02-19T21:59:01.855Z,97987.06
2019-02-19T22:01:30.021Z,97984.17
2019-02-19T22:03:58.032Z,97984.62
2019-02-19T22:06:27.335Z,97987.09
2019-02-19T22:08:55.305Z,97996.09
2019-02-19T22:11:23.329Z,97995.48
2019-02-19T22:13:51.527Z,97992.31
2019-02-19T22:16:19.571Z,97993.45
2019-02-19T22:18:47.462Z,97989.67
2019-02-19T22:21:50.036Z,97987.67
2019-02-19T22:24:34.070Z,97977.36
2019-02-19T22:27:04.890Z,97984.67
2019-02-19T22:29:32.866Z,97993.82
2019-02-19T22:32:01.014Z,97988.12
2019-02-19T22:34:28.914Z,97989.59
2019-02-19T22:36:56.964Z,97990.93
2019-02-19T22:39:24.859Z,97990.34
2019-02-19T22:41:52.936Z,97991.52
2019-02-19T22:44:20.759Z,97993.61
2019-02-19T22:46:48.864Z,97994.47
2019-02-19T22:49:16.725Z,97986.19
2019-02-19T22:51:44.721Z,97998.05
2019-02-19T22:54:35.954Z,97992.98
2019-02-19T22:57:04.089Z,97992.91
2019-02-19T22:59:31.827Z,97985.94
2019-02-19T23:02:05.830Z,97989.52
2019-02-19T23:04:33.712Z,97994.03
2019-02-19T23:07:01.694Z,97991.81
2019-02-19T23:09:29.458Z,97992.02
2019-02-19T23:11:57.551Z,97997.28
2019-02-19T23:14:25.686Z,98001.63
2019-02-19T23:16:53.694Z,98002.46
2019-02-19T23:19:21.755Z,98016.06
2019-02-19T23:21:49.775Z,98010.91
2019-02-19T23:24:17.684Z,98006.20
2019-02-19T23:26:45.587Z,98011.13
2019-02-19T23:29:13.748Z,98011.45
2019-02-19T23:31:41.590Z,98004.87
2019-02-19T23:34:09.866Z,98014.87
2019-02-19T23:36:49.889Z,98000.65
2019-02-19T23:39:17.802Z,98017.56
2019-02-19T23:41:45.768Z,98013.39
2019-02-19T23:44:13.622Z,98008.12
2019-02-19T23:46:41.641Z,98006.29
2019-02-19T23:49:09.545Z,98001.78
2019-02-19T23:51:37.635Z,98006.39
2019-02-19T23:54:05.899Z,98006.45
2019-02-19T23:56:33.868Z,98005.70
2019-02-19T23:59:01.745Z,98017.06
